sensor_id;sensor_type;location;lat;lon;timestamp;P1;durP1;ratioP1;P2;durP2;ratioP2
52866;SDS011;38739;53.324;6.862;2023-06-14T00:01:46;3.38;;;1.60;;
52866;SDS011;38739;53.324;6.862;2023-06-14T00:04:12;3.00;;;1.50;;
52866;SDS011;38739;53.324;6.862;2023-06-14T00:06:38;5.07;;;1.80;;
52866;SDS011;38739;53.324;6.862;2023-06-14T00:09:04;3.15;;;1.70;;
52866;SDS011;38739;53.324;6.862;2023-06-14T00:11:30;4.80;;;1.42;;
52866;SDS011;38739;53.324;6.862;2023-06-14T00:13:56;3.90;;;1.58;;
52866;SDS011;38739;53.324;6.862;2023-06-14T00:16:22;4.28;;;1.60;;
52866;SDS011;38739;53.324;6.862;2023-06-14T00:18:49;3.70;;;1.60;;
52866;SDS011;38739;53.324;6.862;2023-06-14T00:21:16;4.68;;;1.70;;
52866;SDS011;38739;53.324;6.862;2023-06-14T00:23:43;3.35;;;1.60;;
52866;SDS011;38739;53.324;6.862;2023-06-14T00:26:08;5.18;;;1.60;;
52866;SDS011;38739;53.324;6.862;2023-06-14T00:28:34;3.33;;;1.35;;
52866;SDS011;38739;53.324;6.862;2023-06-14T00:31:00;5.15;;;1.67;;
52866;SDS011;38739;53.324;6.862;2023-06-14T00:33:25;3.70;;;1.38;;
52866;SDS011;38739;53.324;6.862;2023-06-14T00:35:51;4.78;;;1.50;;
52866;SDS011;38739;53.324;6.862;2023-06-14T00:38:19;2.88;;;1.50;;
52866;SDS011;38739;53.324;6.862;2023-06-14T00:40:45;5.78;;;1.40;;
52866;SDS011;38739;53.324;6.862;2023-06-14T00:43:11;6.82;;;1.50;;
52866;SDS011;38739;53.324;6.862;2023-06-14T00:45:37;2.83;;;1.60;;
52866;SDS011;38739;53.324;6.862;2023-06-14T00:48:03;4.07;;;1.33;;
52866;SDS011;38739;53.324;6.862;2023-06-14T00:50:31;2.95;;;1.50;;
52866;SDS011;38739;53.324;6.862;2023-06-14T00:52:58;5.20;;;1.95;;
52866;SDS011;38739;53.324;6.862;2023-06-14T00:55:26;2.67;;;1.42;;
52866;SDS011;38739;53.324;6.862;2023-06-14T00:57:53;3.45;;;1.90;;
52866;SDS011;38739;53.324;6.862;2023-06-14T01:00:19;3.83;;;1.63;;
52866;SDS011;38739;53.324;6.862;2023-06-14T01:02:45;3.20;;;1.40;;
52866;SDS011;38739;53.324;6.862;2023-06-14T01:05:11;5.18;;;1.83;;
52866;SDS011;38739;53.324;6.862;2023-06-14T01:15:47;3.35;;;1.63;;
52866;SDS011;38739;53.324;6.862;2023-06-14T01:18:13;5.75;;;1.70;;
52866;SDS011;38739;53.324;6.862;2023-06-14T01:20:45;4.85;;;2.00;;
52866;SDS011;38739;53.324;6.862;2023-06-14T01:23:18;5.20;;;1.88;;
52866;SDS011;38739;53.324;6.862;2023-06-14T01:25:46;3.03;;;1.63;;
52866;SDS011;38739;53.324;6.862;2023-06-14T01:28:12;4.68;;;1.75;;
52866;SDS011;38739;53.324;6.862;2023-06-14T01:30:42;2.53;;;1.55;;
52866;SDS011;38739;53.324;6.862;2023-06-14T01:33:14;3.65;;;1.80;;
52866;SDS011;38739;53.324;6.862;2023-06-14T01:35:45;4.50;;;1.83;;
52866;SDS011;38739;53.324;6.862;2023-06-14T01:38:13;3.58;;;1.80;;
52866;SDS011;38739;53.324;6.862;2023-06-14T01:40:43;2.65;;;1.73;;
52866;SDS011;38739;53.324;6.862;2023-06-14T01:43:10;3.15;;;1.80;;
52866;SDS011;38739;53.324;6.862;2023-06-14T01:45:38;4.03;;;1.83;;
52866;SDS011;38739;53.324;6.862;2023-06-14T01:48:06;3.85;;;2.00;;
52866;SDS011;38739;53.324;6.862;2023-06-14T01:50:32;4.45;;;1.90;;
52866;SDS011;38739;53.324;6.862;2023-06-14T01:52:58;6.95;;;2.00;;
52866;SDS011;38739;53.324;6.862;2023-06-14T01:55:23;4.03;;;1.70;;
52866;SDS011;38739;53.324;6.862;2023-06-14T01:57:52;5.53;;;2.00;;
52866;SDS011;38739;53.324;6.862;2023-06-14T02:00:19;2.53;;;1.77;;
52866;SDS011;38739;53.324;6.862;2023-06-14T02:02:45;4.43;;;2.10;;
52866;SDS011;38739;53.324;6.862;2023-06-14T02:05:11;3.35;;;1.80;;
52866;SDS011;38739;53.324;6.862;2023-06-14T02:07:37;3.53;;;1.77;;
52866;SDS011;38739;53.324;6.862;2023-06-14T02:10:03;7.68;;;2.40;;
52866;SDS011;38739;53.324;6.862;2023-06-14T02:12:30;5.95;;;2.08;;
52866;SDS011;38739;53.324;6.862;2023-06-14T02:14:56;5.20;;;2.35;;
52866;SDS011;38739;53.324;6.862;2023-06-14T02:17:22;4.50;;;1.95;;
52866;SDS011;38739;53.324;6.862;2023-06-14T02:19:48;4.78;;;2.10;;
52866;SDS011;38739;53.324;6.862;2023-06-14T02:22:14;3.92;;;2.20;;
52866;SDS011;38739;53.324;6.862;2023-06-14T02:24:41;4.55;;;2.28;;
52866;SDS011;38739;53.324;6.862;2023-06-14T02:27:07;4.40;;;2.10;;
52866;SDS011;38739;53.324;6.862;2023-06-14T02:29:35;4.63;;;1.90;;
52866;SDS011;38739;53.324;6.862;2023-06-14T02:32:01;3.05;;;2.13;;
52866;SDS011;38739;53.324;6.862;2023-06-14T02:34:28;3.53;;;2.00;;
52866;SDS011;38739;53.324;6.862;2023-06-14T02:36:53;4.38;;;1.98;;
52866;SDS011;38739;53.324;6.862;2023-06-14T02:39:20;7.32;;;2.67;;
52866;SDS011;38739;53.324;6.862;2023-06-14T02:41:48;3.63;;;2.33;;
52866;SDS011;38739;53.324;6.862;2023-06-14T02:44:23;4.78;;;2.45;;
52866;SDS011;38739;53.324;6.862;2023-06-14T02:46:50;4.07;;;2.33;;
52866;SDS011;38739;53.324;6.862;2023-06-14T02:49:16;5.55;;;2.30;;
52866;SDS011;38739;53.324;6.862;2023-06-14T02:51:41;6.57;;;2.40;;
52866;SDS011;38739;53.324;6.862;2023-06-14T02:54:07;4.18;;;2.55;;
52866;SDS011;38739;53.324;6.862;2023-06-14T02:56:33;7.97;;;2.20;;
52866;SDS011;38739;53.324;6.862;2023-06-14T02:58:58;4.20;;;2.10;;
52866;SDS011;38739;53.324;6.862;2023-06-14T03:01:25;6.78;;;2.58;;
52866;SDS011;38739;53.324;6.862;2023-06-14T03:04:02;5.50;;;2.80;;
52866;SDS011;38739;53.324;6.862;2023-06-14T03:06:29;6.30;;;2.60;;
52866;SDS011;38739;53.324;6.862;2023-06-14T03:08:56;4.60;;;2.78;;
52866;SDS011;38739;53.324;6.862;2023-06-14T03:11:26;6.28;;;2.53;;
52866;SDS011;38739;53.324;6.862;2023-06-14T03:13:52;8.07;;;2.70;;
52866;SDS011;38739;53.324;6.862;2023-06-14T03:16:18;5.15;;;2.85;;
52866;SDS011;38739;53.324;6.862;2023-06-14T03:18:47;4.50;;;2.45;;
52866;SDS011;38739;53.324;6.862;2023-06-14T03:21:17;6.80;;;2.58;;
52866;SDS011;38739;53.324;6.862;2023-06-14T03:23:43;9.98;;;2.90;;
52866;SDS011;38739;53.324;6.862;2023-06-14T03:26:09;4.55;;;2.80;;
52866;SDS011;38739;53.324;6.862;2023-06-14T03:28:39;6.72;;;2.90;;
52866;SDS011;38739;53.324;6.862;2023-06-14T03:31:05;9.68;;;2.90;;
52866;SDS011;38739;53.324;6.862;2023-06-14T03:33:31;10.85;;;3.00;;
52866;SDS011;38739;53.324;6.862;2023-06-14T03:35:57;4.72;;;2.80;;
52866;SDS011;38739;53.324;6.862;2023-06-14T03:38:22;3.65;;;2.88;;
52866;SDS011;38739;53.324;6.862;2023-06-14T03:40:48;4.70;;;2.85;;
52866;SDS011;38739;53.324;6.862;2023-06-14T03:43:14;4.70;;;3.03;;
52866;SDS011;38739;53.324;6.862;2023-06-14T03:45:39;4.88;;;2.53;;
52866;SDS011;38739;53.324;6.862;2023-06-14T03:48:05;5.22;;;2.70;;
52866;SDS011;38739;53.324;6.862;2023-06-14T03:50:33;5.57;;;2.70;;
52866;SDS011;38739;53.324;6.862;2023-06-14T03:52:59;5.35;;;2.83;;
52866;SDS011;38739;53.324;6.862;2023-06-14T03:55:26;4.45;;;2.60;;
52866;SDS011;38739;53.324;6.862;2023-06-14T03:57:52;5.35;;;2.90;;
52866;SDS011;38739;53.324;6.862;2023-06-14T04:00:18;7.07;;;2.70;;
52866;SDS011;38739;53.324;6.862;2023-06-14T04:02:44;4.65;;;3.00;;
52866;SDS011;38739;53.324;6.862;2023-06-14T04:05:10;7.68;;;2.97;;
52866;SDS011;38739;53.324;6.862;2023-06-14T04:07:36;7.07;;;3.40;;
52866;SDS011;38739;53.324;6.862;2023-06-14T04:10:06;7.57;;;2.85;;
52866;SDS011;38739;53.324;6.862;2023-06-14T04:12:33;5.68;;;3.03;;
52866;SDS011;38739;53.324;6.862;2023-06-14T04:14:58;6.00;;;3.00;;
52866;SDS011;38739;53.324;6.862;2023-06-14T04:17:25;6.72;;;2.90;;
52866;SDS011;38739;53.324;6.862;2023-06-14T04:19:51;6.68;;;3.30;;
52866;SDS011;38739;53.324;6.862;2023-06-14T04:22:17;7.70;;;3.20;;
52866;SDS011;38739;53.324;6.862;2023-06-14T04:24:43;8.75;;;3.33;;
52866;SDS011;38739;53.324;6.862;2023-06-14T04:27:10;7.60;;;3.60;;
52866;SDS011;38739;53.324;6.862;2023-06-14T04:29:35;4.32;;;3.20;;
52866;SDS011;38739;53.324;6.862;2023-06-14T04:32:01;5.45;;;3.17;;
52866;SDS011;38739;53.324;6.862;2023-06-14T04:34:27;7.60;;;3.35;;
52866;SDS011;38739;53.324;6.862;2023-06-14T04:36:59;7.30;;;3.50;;
52866;SDS011;38739;53.324;6.862;2023-06-14T04:39:26;6.65;;;3.55;;
52866;SDS011;38739;53.324;6.862;2023-06-14T04:41:52;3.40;;;2.88;;
52866;SDS011;38739;53.324;6.862;2023-06-14T04:44:21;6.70;;;3.53;;
52866;SDS011;38739;53.324;6.862;2023-06-14T04:46:56;4.95;;;3.22;;
52866;SDS011;38739;53.324;6.862;2023-06-14T04:49:23;6.40;;;3.10;;
52866;SDS011;38739;53.324;6.862;2023-06-14T04:51:49;7.65;;;3.72;;
52866;SDS011;38739;53.324;6.862;2023-06-14T04:54:22;12.73;;;3.50;;
52866;SDS011;38739;53.324;6.862;2023-06-14T04:56:50;8.07;;;3.42;;
52866;SDS011;38739;53.324;6.862;2023-06-14T04:59:16;10.10;;;3.30;;
52866;SDS011;38739;53.324;6.862;2023-06-14T05:01:42;6.32;;;3.38;;
52866;SDS011;38739;53.324;6.862;2023-06-14T05:04:19;5.03;;;2.95;;
52866;SDS011;38739;53.324;6.862;2023-06-14T05:06:47;6.75;;;3.47;;
52866;SDS011;38739;53.324;6.862;2023-06-14T05:09:13;6.05;;;3.47;;
52866;SDS011;38739;53.324;6.862;2023-06-14T05:11:40;7.90;;;3.80;;
52866;SDS011;38739;53.324;6.862;2023-06-14T05:14:09;7.60;;;3.47;;
52866;SDS011;38739;53.324;6.862;2023-06-14T05:16:38;6.78;;;2.95;;
52866;SDS011;38739;53.324;6.862;2023-06-14T05:19:04;5.57;;;3.20;;
52866;SDS011;38739;53.324;6.862;2023-06-14T05:21:30;8.70;;;3.70;;
52866;SDS011;38739;53.324;6.862;2023-06-14T05:23:58;7.47;;;3.45;;
52866;SDS011;38739;53.324;6.862;2023-06-14T05:26:24;11.07;;;3.58;;
52866;SDS011;38739;53.324;6.862;2023-06-14T05:28:54;7.13;;;3.22;;
52866;SDS011;38739;53.324;6.862;2023-06-14T05:31:22;12.45;;;3.97;;
52866;SDS011;38739;53.324;6.862;2023-06-14T05:33:49;7.88;;;3.35;;
52866;SDS011;38739;53.324;6.862;2023-06-14T05:36:15;7.03;;;3.25;;
52866;SDS011;38739;53.324;6.862;2023-06-14T05:38:40;8.43;;;3.80;;
52866;SDS011;38739;53.324;6.862;2023-06-14T05:41:06;5.80;;;3.38;;
52866;SDS011;38739;53.324;6.862;2023-06-14T05:43:32;7.25;;;3.55;;
52866;SDS011;38739;53.324;6.862;2023-06-14T05:45:57;6.03;;;3.38;;
52866;SDS011;38739;53.324;6.862;2023-06-14T05:48:23;8.43;;;3.58;;
52866;SDS011;38739;53.324;6.862;2023-06-14T05:50:49;6.70;;;3.85;;
52866;SDS011;38739;53.324;6.862;2023-06-14T05:53:15;7.80;;;3.50;;
52866;SDS011;38739;53.324;6.862;2023-06-14T05:55:40;10.50;;;3.80;;
52866;SDS011;38739;53.324;6.862;2023-06-14T05:58:06;5.82;;;3.55;;
52866;SDS011;38739;53.324;6.862;2023-06-14T06:00:32;6.93;;;3.25;;
52866;SDS011;38739;53.324;6.862;2023-06-14T06:02:58;7.25;;;3.33;;
52866;SDS011;38739;53.324;6.862;2023-06-14T06:05:24;7.10;;;3.80;;
52866;SDS011;38739;53.324;6.862;2023-06-14T06:07:50;8.85;;;4.10;;
52866;SDS011;38739;53.324;6.862;2023-06-14T06:10:16;9.32;;;3.90;;
52866;SDS011;38739;53.324;6.862;2023-06-14T06:12:42;8.38;;;3.53;;
52866;SDS011;38739;53.324;6.862;2023-06-14T06:15:08;7.60;;;3.55;;
52866;SDS011;38739;53.324;6.862;2023-06-14T06:17:37;6.78;;;3.50;;
52866;SDS011;38739;53.324;6.862;2023-06-14T06:20:03;10.38;;;3.60;;
52866;SDS011;38739;53.324;6.862;2023-06-14T06:22:31;8.77;;;4.03;;
52866;SDS011;38739;53.324;6.862;2023-06-14T06:24:56;8.20;;;3.85;;
52866;SDS011;38739;53.324;6.862;2023-06-14T06:27:22;6.82;;;3.50;;
52866;SDS011;38739;53.324;6.862;2023-06-14T06:29:48;6.15;;;3.08;;
52866;SDS011;38739;53.324;6.862;2023-06-14T06:32:14;11.45;;;3.97;;
52866;SDS011;38739;53.324;6.862;2023-06-14T06:34:40;12.25;;;3.65;;
52866;SDS011;38739;53.324;6.862;2023-06-14T06:37:06;6.88;;;3.35;;
52866;SDS011;38739;53.324;6.862;2023-06-14T06:39:32;7.20;;;3.20;;
52866;SDS011;38739;53.324;6.862;2023-06-14T06:41:58;10.77;;;3.30;;
52866;SDS011;38739;53.324;6.862;2023-06-14T06:44:24;9.27;;;3.60;;
52866;SDS011;38739;53.324;6.862;2023-06-14T06:46:49;8.02;;;3.38;;
52866;SDS011;38739;53.324;6.862;2023-06-14T06:49:15;7.75;;;3.00;;
52866;SDS011;38739;53.324;6.862;2023-06-14T06:51:41;6.53;;;2.88;;
52866;SDS011;38739;53.324;6.862;2023-06-14T06:54:11;6.80;;;3.10;;
52866;SDS011;38739;53.324;6.862;2023-06-14T06:56:36;7.95;;;3.00;;
52866;SDS011;38739;53.324;6.862;2023-06-14T06:59:02;11.13;;;3.60;;
52866;SDS011;38739;53.324;6.862;2023-06-14T07:01:28;9.27;;;3.55;;
52866;SDS011;38739;53.324;6.862;2023-06-14T07:03:54;9.07;;;3.50;;
52866;SDS011;38739;53.324;6.862;2023-06-14T07:06:20;5.70;;;2.80;;
52866;SDS011;38739;53.324;6.862;2023-06-14T07:08:46;5.22;;;3.15;;
52866;SDS011;38739;53.324;6.862;2023-06-14T07:11:14;8.07;;;3.20;;
52866;SDS011;38739;53.324;6.862;2023-06-14T07:13:40;8.07;;;3.00;;
52866;SDS011;38739;53.324;6.862;2023-06-14T07:16:06;7.65;;;3.03;;
52866;SDS011;38739;53.324;6.862;2023-06-14T07:18:32;9.23;;;2.70;;
52866;SDS011;38739;53.324;6.862;2023-06-14T07:20:57;6.15;;;3.03;;
52866;SDS011;38739;53.324;6.862;2023-06-14T07:23:23;6.00;;;3.13;;
52866;SDS011;38739;53.324;6.862;2023-06-14T07:25:49;8.52;;;3.35;;
52866;SDS011;38739;53.324;6.862;2023-06-14T07:28:16;6.50;;;3.10;;
52866;SDS011;38739;53.324;6.862;2023-06-14T07:30:42;6.20;;;3.20;;
52866;SDS011;38739;53.324;6.862;2023-06-14T07:33:08;6.53;;;3.40;;
52866;SDS011;38739;53.324;6.862;2023-06-14T07:35:35;5.28;;;2.78;;
52866;SDS011;38739;53.324;6.862;2023-06-14T07:38:01;4.70;;;2.85;;
52866;SDS011;38739;53.324;6.862;2023-06-14T07:40:26;6.07;;;3.13;;
52866;SDS011;38739;53.324;6.862;2023-06-14T07:42:52;7.00;;;2.90;;
52866;SDS011;38739;53.324;6.862;2023-06-14T07:45:19;6.25;;;2.40;;
52866;SDS011;38739;53.324;6.862;2023-06-14T07:47:45;7.03;;;2.40;;
52866;SDS011;38739;53.324;6.862;2023-06-14T07:50:11;9.70;;;3.10;;
52866;SDS011;38739;53.324;6.862;2023-06-14T07:52:38;8.15;;;2.88;;
52866;SDS011;38739;53.324;6.862;2023-06-14T07:55:04;4.25;;;2.95;;
52866;SDS011;38739;53.324;6.862;2023-06-14T07:57:30;5.32;;;2.70;;
52866;SDS011;38739;53.324;6.862;2023-06-14T07:59:56;6.22;;;2.70;;
52866;SDS011;38739;53.324;6.862;2023-06-14T08:02:22;4.03;;;2.58;;
52866;SDS011;38739;53.324;6.862;2023-06-14T08:04:47;6.03;;;2.60;;
52866;SDS011;38739;53.324;6.862;2023-06-14T08:07:13;5.50;;;2.40;;
52866;SDS011;38739;53.324;6.862;2023-06-14T08:09:39;5.15;;;2.70;;
52866;SDS011;38739;53.324;6.862;2023-06-14T08:12:06;6.15;;;2.70;;
52866;SDS011;38739;53.324;6.862;2023-06-14T08:14:35;4.32;;;2.50;;
52866;SDS011;38739;53.324;6.862;2023-06-14T08:17:01;4.97;;;2.60;;
52866;SDS011;38739;53.324;6.862;2023-06-14T08:19:26;8.93;;;2.78;;
52866;SDS011;38739;53.324;6.862;2023-06-14T08:21:53;7.03;;;3.03;;
52866;SDS011;38739;53.324;6.862;2023-06-14T08:24:23;7.78;;;3.00;;
52866;SDS011;38739;53.324;6.862;2023-06-14T08:26:53;6.18;;;2.47;;
52866;SDS011;38739;53.324;6.862;2023-06-14T08:29:19;5.18;;;2.65;;
52866;SDS011;38739;53.324;6.862;2023-06-14T08:31:45;8.43;;;2.47;;
52866;SDS011;38739;53.324;6.862;2023-06-14T08:34:11;11.80;;;2.72;;
52866;SDS011;38739;53.324;6.862;2023-06-14T08:36:37;5.78;;;2.55;;
52866;SDS011;38739;53.324;6.862;2023-06-14T08:39:03;4.53;;;2.60;;
52866;SDS011;38739;53.324;6.862;2023-06-14T08:41:29;5.07;;;2.55;;
52866;SDS011;38739;53.324;6.862;2023-06-14T08:43:55;6.90;;;2.30;;
52866;SDS011;38739;53.324;6.862;2023-06-14T08:46:21;4.95;;;2.40;;
52866;SDS011;38739;53.324;6.862;2023-06-14T08:48:52;4.50;;;2.53;;
52866;SDS011;38739;53.324;6.862;2023-06-14T08:51:20;7.25;;;2.70;;
52866;SDS011;38739;53.324;6.862;2023-06-14T08:53:49;6.60;;;2.55;;
52866;SDS011;38739;53.324;6.862;2023-06-14T08:56:27;5.38;;;2.78;;
52866;SDS011;38739;53.324;6.862;2023-06-14T08:58:54;7.45;;;2.95;;
52866;SDS011;38739;53.324;6.862;2023-06-14T09:01:22;8.52;;;2.92;;
52866;SDS011;38739;53.324;6.862;2023-06-14T09:03:48;6.03;;;2.25;;
52866;SDS011;38739;53.324;6.862;2023-06-14T09:06:15;5.20;;;2.47;;
52866;SDS011;38739;53.324;6.862;2023-06-14T09:08:50;5.38;;;2.42;;
52866;SDS011;38739;53.324;6.862;2023-06-14T09:11:17;5.25;;;2.13;;
52866;SDS011;38739;53.324;6.862;2023-06-14T09:13:44;5.95;;;2.38;;
52866;SDS011;38739;53.324;6.862;2023-06-14T09:16:11;4.45;;;2.28;;
52866;SDS011;38739;53.324;6.862;2023-06-14T09:18:38;6.60;;;2.38;;
52866;SDS011;38739;53.324;6.862;2023-06-14T09:21:15;6.35;;;2.33;;
52866;SDS011;38739;53.324;6.862;2023-06-14T09:23:45;6.40;;;2.58;;
52866;SDS011;38739;53.324;6.862;2023-06-14T09:26:14;5.07;;;2.30;;
52866;SDS011;38739;53.324;6.862;2023-06-14T09:28:41;5.00;;;2.30;;
52866;SDS011;38739;53.324;6.862;2023-06-14T09:31:08;7.25;;;2.60;;
52866;SDS011;38739;53.324;6.862;2023-06-14T09:33:35;6.43;;;2.40;;
52866;SDS011;38739;53.324;6.862;2023-06-14T09:36:01;5.28;;;2.33;;
52866;SDS011;38739;53.324;6.862;2023-06-14T09:38:26;2.60;;;2.00;;
52866;SDS011;38739;53.324;6.862;2023-06-14T09:40:52;3.35;;;2.15;;
52866;SDS011;38739;53.324;6.862;2023-06-14T09:43:20;3.58;;;2.30;;
52866;SDS011;38739;53.324;6.862;2023-06-14T09:45:46;4.00;;;2.22;;
52866;SDS011;38739;53.324;6.862;2023-06-14T09:48:13;5.95;;;2.58;;
52866;SDS011;38739;53.324;6.862;2023-06-14T09:50:44;4.15;;;2.03;;
52866;SDS011;38739;53.324;6.862;2023-06-14T09:53:11;5.45;;;2.20;;
52866;SDS011;38739;53.324;6.862;2023-06-14T09:55:38;3.65;;;1.83;;
52866;SDS011;38739;53.324;6.862;2023-06-14T09:58:06;4.43;;;2.15;;
52866;SDS011;38739;53.324;6.862;2023-06-14T10:00:34;5.32;;;2.20;;
52866;SDS011;38739;53.324;6.862;2023-06-14T10:03:16;4.75;;;1.95;;
52866;SDS011;38739;53.324;6.862;2023-06-14T10:05:55;3.85;;;1.95;;
52866;SDS011;38739;53.324;6.862;2023-06-14T10:08:27;4.90;;;2.00;;
52866;SDS011;38739;53.324;6.862;2023-06-14T10:10:57;5.25;;;2.30;;
52866;SDS011;38739;53.324;6.862;2023-06-14T10:13:23;4.78;;;2.15;;
52866;SDS011;38739;53.324;6.862;2023-06-14T10:24:01;6.03;;;2.28;;
52866;SDS011;38739;53.324;6.862;2023-06-14T10:26:30;2.33;;;1.85;;
52866;SDS011;38739;53.324;6.862;2023-06-14T10:29:00;7.03;;;2.00;;
52866;SDS011;38739;53.324;6.862;2023-06-14T10:36:59;7.22;;;1.90;;
52866;SDS011;38739;53.324;6.862;2023-06-14T10:39:28;4.10;;;1.73;;
52866;SDS011;38739;53.324;6.862;2023-06-14T10:41:55;7.57;;;1.98;;
52866;SDS011;38739;53.324;6.862;2023-06-14T10:46:48;5.15;;;2.17;;
52866;SDS011;38739;53.324;6.862;2023-06-14T10:49:17;7.35;;;2.00;;
52866;SDS011;38739;53.324;6.862;2023-06-14T10:51:44;3.47;;;1.90;;
52866;SDS011;38739;53.324;6.862;2023-06-14T10:54:21;5.95;;;2.13;;
52866;SDS011;38739;53.324;6.862;2023-06-14T10:56:51;4.38;;;1.95;;
52866;SDS011;38739;53.324;6.862;2023-06-14T10:59:18;4.55;;;2.20;;
52866;SDS011;38739;53.324;6.862;2023-06-14T11:04:39;5.25;;;1.88;;
52866;SDS011;38739;53.324;6.862;2023-06-14T11:12:34;4.57;;;1.90;;
52866;SDS011;38739;53.324;6.862;2023-06-14T11:15:03;4.15;;;1.83;;
52866;SDS011;38739;53.324;6.862;2023-06-14T11:17:31;8.00;;;1.83;;
52866;SDS011;38739;53.324;6.862;2023-06-14T11:20:11;3.85;;;1.88;;
52866;SDS011;38739;53.324;6.862;2023-06-14T11:22:44;2.35;;;1.80;;
52866;SDS011;38739;53.324;6.862;2023-06-14T11:25:14;4.55;;;1.77;;
52866;SDS011;38739;53.324;6.862;2023-06-14T11:27:43;3.65;;;1.75;;
52866;SDS011;38739;53.324;6.862;2023-06-14T11:30:09;2.70;;;1.50;;
52866;SDS011;38739;53.324;6.862;2023-06-14T11:32:35;4.22;;;1.60;;
52866;SDS011;38739;53.324;6.862;2023-06-14T11:35:02;4.43;;;1.63;;
52866;SDS011;38739;53.324;6.862;2023-06-14T11:37:30;5.07;;;1.58;;
52866;SDS011;38739;53.324;6.862;2023-06-14T11:40:00;3.30;;;1.40;;
52866;SDS011;38739;53.324;6.862;2023-06-14T11:42:26;2.85;;;1.60;;
52866;SDS011;38739;53.324;6.862;2023-06-14T11:44:53;7.25;;;1.63;;
52866;SDS011;38739;53.324;6.862;2023-06-14T11:47:20;3.78;;;1.40;;
52866;SDS011;38739;53.324;6.862;2023-06-14T11:49:46;3.00;;;1.40;;
52866;SDS011;38739;53.324;6.862;2023-06-14T11:52:12;3.35;;;1.17;;
52866;SDS011;38739;53.324;6.862;2023-06-14T11:54:38;2.72;;;1.30;;
52866;SDS011;38739;53.324;6.862;2023-06-14T11:57:07;4.82;;;1.63;;
52866;SDS011;38739;53.324;6.862;2023-06-14T11:59:40;3.90;;;1.40;;
52866;SDS011;38739;53.324;6.862;2023-06-14T12:02:06;5.30;;;1.30;;
52866;SDS011;38739;53.324;6.862;2023-06-14T12:04:32;4.20;;;1.90;;
52866;SDS011;38739;53.324;6.862;2023-06-14T12:07:11;5.15;;;1.30;;
52866;SDS011;38739;53.324;6.862;2023-06-14T12:12:09;7.35;;;1.48;;
52866;SDS011;38739;53.324;6.862;2023-06-14T12:14:36;5.03;;;1.40;;
52866;SDS011;38739;53.324;6.862;2023-06-14T12:17:05;5.05;;;1.30;;
52866;SDS011;38739;53.324;6.862;2023-06-14T12:19:43;5.65;;;1.30;;
52866;SDS011;38739;53.324;6.862;2023-06-14T12:22:11;4.70;;;1.33;;
52866;SDS011;38739;53.324;6.862;2023-06-14T12:24:37;4.70;;;1.95;;
52866;SDS011;38739;53.324;6.862;2023-06-14T12:27:04;5.55;;;1.50;;
52866;SDS011;38739;53.324;6.862;2023-06-14T12:29:30;5.50;;;1.92;;
52866;SDS011;38739;53.324;6.862;2023-06-14T12:31:57;3.10;;;1.40;;
52866;SDS011;38739;53.324;6.862;2023-06-14T12:34:23;2.88;;;1.60;;
52866;SDS011;38739;53.324;6.862;2023-06-14T12:36:55;3.83;;;1.50;;
52866;SDS011;38739;53.324;6.862;2023-06-14T12:39:22;3.15;;;1.40;;
52866;SDS011;38739;53.324;6.862;2023-06-14T12:41:48;5.43;;;1.40;;
52866;SDS011;38739;53.324;6.862;2023-06-14T12:44:14;4.03;;;1.38;;
52866;SDS011;38739;53.324;6.862;2023-06-14T12:46:41;1.90;;;1.38;;
52866;SDS011;38739;53.324;6.862;2023-06-14T12:49:08;5.05;;;1.50;;
52866;SDS011;38739;53.324;6.862;2023-06-14T12:51:34;3.42;;;1.58;;
52866;SDS011;38739;53.324;6.862;2023-06-14T12:54:00;4.20;;;1.90;;
52866;SDS011;38739;53.324;6.862;2023-06-14T12:56:26;1.80;;;1.35;;
52866;SDS011;38739;53.324;6.862;2023-06-14T12:58:52;5.90;;;1.52;;
52866;SDS011;38739;53.324;6.862;2023-06-14T13:01:18;3.33;;;1.88;;
52866;SDS011;38739;53.324;6.862;2023-06-14T13:03:44;4.45;;;1.50;;
52866;SDS011;38739;53.324;6.862;2023-06-14T13:06:11;4.07;;;1.58;;
52866;SDS011;38739;53.324;6.862;2023-06-14T13:08:37;3.28;;;1.40;;
52866;SDS011;38739;53.324;6.862;2023-06-14T13:11:03;3.60;;;1.45;;
52866;SDS011;38739;53.324;6.862;2023-06-14T13:13:28;2.58;;;1.40;;
52866;SDS011;38739;53.324;6.862;2023-06-14T13:15:54;5.07;;;1.38;;
52866;SDS011;38739;53.324;6.862;2023-06-14T13:18:20;3.33;;;1.27;;
52866;SDS011;38739;53.324;6.862;2023-06-14T13:20:46;5.40;;;1.50;;
52866;SDS011;38739;53.324;6.862;2023-06-14T13:23:12;3.35;;;1.45;;
52866;SDS011;38739;53.324;6.862;2023-06-14T13:25:39;3.83;;;1.40;;
52866;SDS011;38739;53.324;6.862;2023-06-14T13:28:10;3.35;;;1.40;;
52866;SDS011;38739;53.324;6.862;2023-06-14T13:30:36;4.78;;;1.48;;
52866;SDS011;38739;53.324;6.862;2023-06-14T13:33:02;3.58;;;1.50;;
52866;SDS011;38739;53.324;6.862;2023-06-14T13:35:28;4.22;;;1.60;;
52866;SDS011;38739;53.324;6.862;2023-06-14T13:37:55;1.88;;;1.50;;
52866;SDS011;38739;53.324;6.862;2023-06-14T13:40:20;4.50;;;1.60;;
52866;SDS011;38739;53.324;6.862;2023-06-14T13:42:46;4.43;;;1.50;;
52866;SDS011;38739;53.324;6.862;2023-06-14T13:45:13;6.78;;;2.08;;
52866;SDS011;38739;53.324;6.862;2023-06-14T13:47:40;3.20;;;1.50;;
52866;SDS011;38739;53.324;6.862;2023-06-14T13:50:06;3.45;;;1.60;;
52866;SDS011;38739;53.324;6.862;2023-06-14T13:52:32;4.85;;;1.70;;
52866;SDS011;38739;53.324;6.862;2023-06-14T13:54:58;3.65;;;1.70;;
52866;SDS011;38739;53.324;6.862;2023-06-14T13:57:23;4.68;;;1.60;;
52866;SDS011;38739;53.324;6.862;2023-06-14T13:59:49;6.18;;;1.65;;
52866;SDS011;38739;53.324;6.862;2023-06-14T14:02:15;3.97;;;1.70;;
52866;SDS011;38739;53.324;6.862;2023-06-14T14:04:40;5.18;;;1.88;;
52866;SDS011;38739;53.324;6.862;2023-06-14T14:07:06;5.30;;;2.03;;
52866;SDS011;38739;53.324;6.862;2023-06-14T14:09:33;4.95;;;1.67;;
52866;SDS011;38739;53.324;6.862;2023-06-14T14:12:00;3.10;;;1.40;;
52866;SDS011;38739;53.324;6.862;2023-06-14T14:14:27;2.88;;;1.90;;
52866;SDS011;38739;53.324;6.862;2023-06-14T14:16:53;2.70;;;1.40;;
52866;SDS011;38739;53.324;6.862;2023-06-14T14:19:19;3.15;;;1.60;;
52866;SDS011;38739;53.324;6.862;2023-06-14T14:21:46;4.40;;;1.98;;
52866;SDS011;38739;53.324;6.862;2023-06-14T14:24:12;4.60;;;1.67;;
52866;SDS011;38739;53.324;6.862;2023-06-14T14:26:38;3.08;;;1.50;;
52866;SDS011;38739;53.324;6.862;2023-06-14T14:29:04;3.38;;;1.90;;
52866;SDS011;38739;53.324;6.862;2023-06-14T14:31:30;4.85;;;1.98;;
52866;SDS011;38739;53.324;6.862;2023-06-14T14:33:56;5.35;;;1.63;;
52866;SDS011;38739;53.324;6.862;2023-06-14T14:36:22;2.67;;;1.50;;
52866;SDS011;38739;53.324;6.862;2023-06-14T14:38:47;5.53;;;1.52;;
52866;SDS011;38739;53.324;6.862;2023-06-14T14:41:13;3.70;;;1.80;;
52866;SDS011;38739;53.324;6.862;2023-06-14T14:43:39;5.68;;;1.77;;
52866;SDS011;38739;53.324;6.862;2023-06-14T14:46:05;3.33;;;2.00;;
52866;SDS011;38739;53.324;6.862;2023-06-14T14:48:31;3.72;;;1.73;;
52866;SDS011;38739;53.324;6.862;2023-06-14T14:50:56;4.85;;;1.65;;
52866;SDS011;38739;53.324;6.862;2023-06-14T14:53:22;4.88;;;1.92;;
52866;SDS011;38739;53.324;6.862;2023-06-14T14:55:48;4.68;;;1.70;;
52866;SDS011;38739;53.324;6.862;2023-06-14T14:58:14;4.07;;;1.83;;
52866;SDS011;38739;53.324;6.862;2023-06-14T15:00:46;3.03;;;2.10;;
52866;SDS011;38739;53.324;6.862;2023-06-14T15:03:12;3.25;;;1.60;;
52866;SDS011;38739;53.324;6.862;2023-06-14T15:05:39;2.10;;;1.85;;
52866;SDS011;38739;53.324;6.862;2023-06-14T15:08:05;3.88;;;1.83;;
52866;SDS011;38739;53.324;6.862;2023-06-14T15:13:02;3.53;;;1.90;;
52866;SDS011;38739;53.324;6.862;2023-06-14T15:15:28;3.47;;;1.90;;
52866;SDS011;38739;53.324;6.862;2023-06-14T15:17:54;3.13;;;1.85;;
52866;SDS011;38739;53.324;6.862;2023-06-14T15:20:20;3.88;;;1.95;;
52866;SDS011;38739;53.324;6.862;2023-06-14T15:22:45;2.60;;;1.73;;
52866;SDS011;38739;53.324;6.862;2023-06-14T15:25:11;5.35;;;1.92;;